Vernal, UT

7:33 AM MDT on October 24, 2014 (GMT -0600)
Maeser | Change Station
CLOSE
Current Station
Personal Weather Station
Location: Vernal, UT
Elevation: 5469 ft
Nearby Weather Stations

Elev 5469 ft 40.46 °N, 109.57 °W | Updated 3 minutes ago

Clear
Clear
39.6 °F
Feels Like 40 °F
N
3.0
Wind Variable Wind from West
Gusts 4.0 mph

Today
High -- | Low -- °F
--% Chance of Precip.
Yesterday
High -- | Low -- °F
Precip. -- in
7:39 AM 6:25 PM
New Moon, 0% visible
Pressure 30.22 in
Visibility 10.0 miles
Clouds Clear
Windchill 40 °F
Dew Point 32 °F
Humidity 75%
Rainfall 0.00 in
Snow Depth Not available.
UV 0.0 out of 12
Pollen 1.60 out of 12
Air Quality Not available.
Flu Activity Sporadic
METAR KVEL 241253Z AUTO 27004KT 10SM CLR 03/00 A3026 RMK AO2 SLP231 T00330000

More Conditions Fewer Conditions

Pressure 30.22 in
Visibility 10.0 miles
Clouds Clear
Windchill 40 °F
Dew Point 32 °F
Humidity 75%
Rainfall 0.00 in
Snow Depth Not available.
UV 0.0 out of 12
Pollen 1.60 out of 12
Air Quality Not available.
Flu Activity Sporadic
METAR KVEL 241253Z AUTO 27004KT 10SM CLR 03/00 A3026 RMK AO2 SLP231 T00330000

More Conditions Fewer Conditions

10-Day Weather Forecast

Almanac

Astronomy

Oct. 24, 2014 Rise Set
Actual Time 7:39 AM MDT 6:25 PM MDT
Civil Twilight 7:11 AM MDT 6:53 PM MDT
Nautical Twilight 6:39 AM MDT 7:24 PM MDT
Astronomical Twilight 6:07 AM MDT 7:56 PM MDT
Moon 8:21 AM MDT 7:07 PM MDT
Length of Visible Light 11h 41m
Length of Day
10h 46m
Tomorrow will be 2m 28s shorter.
New Moon, 0% of the Moon is Illuminated
Today
New Moon
Oct 30
First Quarter
Nov 6
Full
Nov 14
Last Quarter
Nov 22
New

Today's Extremes

State Highs State Lows

Community

WunderPhotos

Upload Photos

1,764,550 photos uploaded!

WunderBlogs® & News

Nearby

Snow Depth

Station Depth Elevation
King's Cabin 2 in 8730 ft
Mosby Mountain 1 in 9500 ft
Trout Creek 3 in 9400 ft
Chepeta 1 in 10300 ft
Lakefork #1 3 in 10100 ft

Earthquake Activity

City Distance Mag. Time & Date
Ferron, Utah 140 miles 2.5 10:53 PM MDT
2014-10-21
Minimum magnitude displayed is 2.5.

Coastal Water Temperatures

Place Temperature
No Stations Reporting

Nearby Weather Stations